Startpagina
METAR-TAF:

METAR-TAF

Vliegvelden :

Luchthaven Caïro Internationaal

Caïro, Egypte

breedte: 30-08N, lengte: 031-24E, hoogte: 64 m

Actueel weer

Dit bericht is 14 minuten geleden gemaakt, om 18:00 UTC
Wind 6 kt uit het noorden
Temperatuur 34°C
Vochtigheid 39%
Druk 1007 hPa
Zicht 10 km of meer
geen wolken onder 1500 m en geen cumulonimbus

METAR: HECA 181800Z 35006KT CAVOK 34/18 Q1007 NOSIG

Tijdstip: 20:14 (18:14 UTC)

Verwachting

Dit bericht is 1 uur en het 14 minuten geleden gemaakt, om 17:00 UTC
Verwachting geldig van 18 om 18 UTC tot 19 om 24 UTC
Wind 12 kt uit het noorden
Zicht 10 km of meer
geen wolken onder 1500 m en geen cumulonimbus
Tijdelijke
van 19 om 00 UTC tot 19 om 08 UTC
Wind 5 kt uit het noorden
Zicht: 6000 m
Verspreide wolken op 2500 ft

TAF: HECA 181700Z 1818/1924 35012KT CAVOK TEMPO 1900/1908 36005KT 6000 SCT025

Waarnemingen en weersverwachtingen van meer dan 4000 vliegvelden (METAR en TAF).

De beschikbare stations zijn de gele en rode punten op de kaart.

Ga met uw muis naar het station om de naam te zien.

Klik dan om waarnemingen en weersverwachtingen te zien.

kaart wijzigen: klik op de groene knoppen met een zwart kruis om in te zoomen, op de groene knop met een streepje om uit te zoomen of op de groene pijlen voor aangrenzende kaarten.


METAR-TAF: